createdAt,value
2022-11-06T00:08:14.358Z,100011.95
2022-11-06T00:17:45.926Z,99996.27
2022-11-06T00:27:19.361Z,99977.23
2022-11-06T00:36:53.043Z,99957.48
2022-11-06T00:46:24.728Z,99934.27
2022-11-06T00:55:57.421Z,99937.73
2022-11-06T01:05:30.887Z,99932.77
2022-11-06T01:15:04.758Z,99951.09
2022-11-06T01:24:40.917Z,99957.72
2022-11-06T01:34:10.802Z,99960.80
2022-11-06T01:43:45.229Z,99955.95
2022-11-06T01:53:16.736Z,99932.45
2022-11-06T02:02:50.321Z,99929.42
2022-11-06T02:12:24.875Z,99924.43
2022-11-06T02:21:56.601Z,99918.78
2022-11-06T02:31:27.934Z,99902.42
2022-11-06T02:41:00.925Z,99896.99
2022-11-06T02:50:34.113Z,99895.38
2022-11-06T03:00:07.535Z,99915.53
2022-11-06T03:09:39.113Z,99910.60
2022-11-06T03:19:10.647Z,99892.95
2022-11-06T03:28:45.186Z,99902.98
2022-11-06T03:38:15.759Z,99887.77
2022-11-06T03:47:48.548Z,99874.97
2022-11-06T03:57:21.638Z,99861.44
2022-11-06T04:06:54.858Z,99846.91
2022-11-06T04:16:27.666Z,99848.29
2022-11-06T04:26:00.063Z,99879.59
2022-11-06T04:35:34.194Z,99880.63
2022-11-06T04:45:05.890Z,99873.34
2022-11-06T04:54:37.625Z,99895.06
2022-11-06T05:04:10.560Z,99886.67
2022-11-06T05:13:43.004Z,99878.45
2022-11-06T05:23:14.534Z,99863.64
2022-11-06T05:32:48.687Z,99852.97
2022-11-06T05:42:20.285Z,99869.79
2022-11-06T05:51:54.924Z,99832.57
2022-11-06T06:01:27.038Z,99807.48
2022-11-06T06:11:02.378Z,99824.34
2022-11-06T06:20:34.300Z,99795.44
2022-11-06T06:30:08.220Z,99752.65
2022-11-06T06:39:43.157Z,99741.77
2022-11-06T06:49:16.137Z,99752.84
2022-11-06T06:58:49.291Z,99756.13
2022-11-06T07:08:23.007Z,99753.09
2022-11-06T07:17:55.459Z,99760.98
2022-11-06T07:27:29.190Z,99763.94
2022-11-06T07:37:06.613Z,99750.98
2022-11-06T07:46:36.912Z,99772.42
2022-11-06T07:56:10.917Z,99786.07
2022-11-06T08:05:46.943Z,99768.84
2022-11-06T08:15:20.086Z,99773.57
2022-11-06T08:24:52.907Z,99755.81
2022-11-06T08:34:27.184Z,99753.23
2022-11-06T08:44:01.479Z,99729.70
2022-11-06T08:53:35.668Z,99703.11
2022-11-06T09:03:12.186Z,99712.55
2022-11-06T09:12:44.359Z,99694.05
2022-11-06T09:22:18.956Z,99687.30
2022-11-06T09:23:21.391Z,99679.38
2022-11-06T09:24:37.474Z,99688.95
2022-11-06T09:33:59.122Z,99651.89
2022-11-06T09:43:58.635Z,99638.73
2022-11-06T09:44:34.203Z,99637.22
2022-11-06T09:54:09.498Z,99645.28
2022-11-06T09:55:11.914Z,99643.72
2022-11-06T09:56:14.336Z,99632.91
2022-11-06T09:57:18.353Z,99626.72
2022-11-06T10:06:49.609Z,99603.55
2022-11-06T10:07:53.639Z,99604.38
2022-11-06T10:08:55.987Z,99599.15
2022-11-06T10:09:58.553Z,99600.47
2022-11-06T10:11:02.567Z,99596.97
2022-11-06T10:12:04.899Z,99596.00
2022-11-06T10:13:07.260Z,99595.98
2022-11-06T10:14:09.709Z,99594.90
2022-11-06T10:15:12.220Z,99595.56
2022-11-06T10:16:16.424Z,99595.16
2022-11-06T10:17:20.284Z,99593.50
2022-11-06T10:18:22.535Z,99593.84
2022-11-06T10:19:25.013Z,99593.64
2022-11-06T10:20:27.605Z,99596.55
2022-11-06T10:21:31.392Z,99593.11
2022-11-06T10:22:35.480Z,99597.33
2022-11-06T10:23:39.366Z,99601.33
2022-11-06T10:24:43.225Z,99598.81
2022-11-06T10:25:45.663Z,99606.42
2022-11-06T10:26:48.144Z,99600.53
2022-11-06T10:36:20.045Z,99595.21
2022-11-06T10:37:22.511Z,99591.72
2022-11-06T10:38:25.057Z,99588.45
2022-11-06T10:39:27.436Z,99585.70
2022-11-06T10:40:31.435Z,99578.28
2022-11-06T10:41:33.777Z,99578.50
2022-11-06T10:42:38.135Z,99571.50
2022-11-06T10:43:38.625Z,99568.10
2022-11-06T10:44:43.597Z,99567.97
2022-11-06T10:45:45.986Z,99567.70
2022-11-06T10:46:48.462Z,99568.73
2022-11-06T10:47:52.520Z,99568.69
2022-11-06T10:48:55.797Z,99565.84
2022-11-06T10:49:57.285Z,99571.88
2022-11-06T10:50:59.787Z,99564.37
2022-11-06T10:52:03.832Z,99563.55
2022-11-06T10:53:07.765Z,99555.85
2022-11-06T10:54:10.085Z,99549.86
2022-11-06T10:55:14.054Z,99546.75
2022-11-06T10:56:21.066Z,99541.75
2022-11-06T10:57:20.306Z,99548.75
2022-11-06T10:58:24.340Z,99551.22
2022-11-06T10:59:28.225Z,99559.03
2022-11-06T11:00:32.165Z,99560.11
2022-11-06T11:01:34.625Z,99554.45
2022-11-06T11:02:37.077Z,99544.98
2022-11-06T11:03:39.489Z,99542.55
2022-11-06T11:04:41.903Z,99539.34
2022-11-06T11:05:45.933Z,99534.77
2022-11-06T11:06:49.870Z,99533.72
2022-11-06T11:07:52.177Z,99536.45
2022-11-06T11:08:56.227Z,99535.50
2022-11-06T11:10:00.076Z,99531.77
2022-11-06T11:11:05.044Z,99533.52
2022-11-06T11:12:05.822Z,99531.28
2022-11-06T11:13:09.038Z,99526.30
2022-11-06T11:14:16.160Z,99524.31
2022-11-06T11:15:18.181Z,99519.87
2022-11-06T11:16:22.226Z,99514.34
2022-11-06T11:17:26.087Z,99511.58
2022-11-06T11:18:28.479Z,99516.42
2022-11-06T11:19:30.932Z,99510.52
2022-11-06T11:20:34.979Z,99505.77
2022-11-06T11:21:37.342Z,99500.64
2022-11-06T11:22:41.389Z,99501.30
2022-11-06T11:23:46.325Z,99496.67
2022-11-06T11:24:48.660Z,99501.22
2022-11-06T11:25:51.049Z,99494.94
2022-11-06T11:26:56.043Z,99490.73
2022-11-06T11:28:02.219Z,99487.88
2022-11-06T11:29:00.787Z,99485.23
2022-11-06T11:30:03.244Z,99482.16
2022-11-06T11:31:11.299Z,99477.41
2022-11-06T11:32:13.437Z,99478.36
2022-11-06T11:33:15.816Z,99467.34
2022-11-06T11:34:18.244Z,99465.98
2022-11-06T11:35:20.696Z,99460.39
2022-11-06T11:36:24.763Z,99458.69
2022-11-06T11:37:28.770Z,99451.73
2022-11-06T11:38:31.077Z,99451.13
2022-11-06T11:39:33.531Z,99448.73
2022-11-06T11:40:36.208Z,99442.47
2022-11-06T11:41:43.404Z,99440.73
2022-11-06T11:42:47.135Z,99440.27
2022-11-06T11:43:51.000Z,99432.16
2022-11-06T11:44:54.945Z,99428.19
2022-11-06T11:45:58.849Z,99433.95
2022-11-06T11:47:01.919Z,99431.20
2022-11-06T11:48:09.173Z,99425.11
2022-11-06T11:49:11.297Z,99425.71
2022-11-06T11:50:13.673Z,99421.39
2022-11-06T11:51:17.760Z,99416.33
2022-11-06T11:52:20.142Z,99416.59
2022-11-06T11:53:24.520Z,99416.47
2022-11-06T11:54:26.743Z,99412.14
2022-11-06T11:55:30.781Z,99410.00
2022-11-06T11:56:58.127Z,99410.44
2022-11-06T11:57:37.111Z,99413.72
2022-11-06T11:58:41.064Z,99412.38
2022-11-06T11:59:43.462Z,99417.77
2022-11-06T12:00:47.496Z,99417.83
2022-11-06T12:01:50.014Z,99416.02
2022-11-06T12:02:53.862Z,99412.44
2022-11-06T12:12:24.437Z,99382.03
2022-11-06T12:13:28.534Z,99384.28
2022-11-06T12:14:32.558Z,99372.98
2022-11-06T12:15:34.891Z,99369.25
2022-11-06T12:16:38.367Z,99369.88
2022-11-06T12:17:40.747Z,99363.98
2022-11-06T12:18:43.457Z,99362.13
2022-11-06T12:19:45.773Z,99360.38
2022-11-06T12:20:48.151Z,99360.94
2022-11-06T12:21:51.591Z,99363.61
2022-11-06T12:22:53.960Z,99360.92
2022-11-06T12:23:56.452Z,99360.80
2022-11-06T12:24:58.925Z,99359.20
2022-11-06T12:26:01.388Z,99360.20
2022-11-06T12:27:03.828Z,99358.63
2022-11-06T12:28:07.870Z,99359.86
2022-11-06T12:29:11.794Z,99359.78
2022-11-06T12:30:15.787Z,99357.77
2022-11-06T12:31:18.002Z,99356.34
2022-11-06T12:32:21.687Z,99359.03
2022-11-06T12:33:45.696Z,99345.35
2022-11-06T12:34:29.476Z,99343.95
2022-11-06T12:35:33.377Z,99342.76
2022-11-06T12:36:35.679Z,99342.36
2022-11-06T12:37:39.695Z,99336.28
2022-11-06T12:38:43.605Z,99328.09
2022-11-06T12:39:45.955Z,99319.67
2022-11-06T12:40:48.353Z,99315.78
2022-11-06T12:41:52.381Z,99316.77
2022-11-06T12:42:55.747Z,99313.40
2022-11-06T12:43:58.236Z,99314.23
2022-11-06T12:45:00.620Z,99315.06
2022-11-06T12:46:03.087Z,99310.97
2022-11-06T12:47:05.540Z,99314.16
2022-11-06T12:48:07.979Z,99313.16
2022-11-06T12:49:10.430Z,99308.09
2022-11-06T12:50:12.894Z,99305.45
2022-11-06T12:51:15.470Z,99302.38
2022-11-06T12:52:20.467Z,99297.16
2022-11-06T12:53:24.411Z,99295.14
2022-11-06T12:54:26.770Z,99292.45
2022-11-06T12:55:29.228Z,99296.58
2022-11-06T12:56:31.686Z,99297.75
2022-11-06T12:57:34.130Z,99302.34
2022-11-06T12:58:36.629Z,99304.05
2022-11-06T12:59:39.154Z,99300.22
2022-11-06T13:00:41.547Z,99298.30
2022-11-06T13:01:45.748Z,99295.59
2022-11-06T13:02:50.509Z,99290.53
2022-11-06T13:03:54.414Z,99289.68
2022-11-06T13:04:58.372Z,99286.14
2022-11-06T13:06:00.719Z,99281.38
2022-11-06T13:15:33.798Z,99277.84
2022-11-06T13:16:36.240Z,99275.52
2022-11-06T13:17:38.685Z,99278.01
2022-11-06T13:18:41.381Z,99272.73
2022-11-06T13:19:47.409Z,99272.41
2022-11-06T13:20:51.325Z,99271.31
2022-11-06T13:21:53.615Z,99261.02
2022-11-06T13:22:56.070Z,99268.21
2022-11-06T13:23:58.492Z,99272.42
2022-11-06T13:25:00.979Z,99271.48
2022-11-06T13:26:07.293Z,99278.52
2022-11-06T13:27:12.085Z,99277.73
2022-11-06T13:28:14.545Z,99274.07
2022-11-06T13:29:16.863Z,99276.48
2022-11-06T13:30:23.091Z,99278.77
2022-11-06T13:31:25.756Z,99280.53
2022-11-06T13:32:28.205Z,99272.00
2022-11-06T13:33:32.262Z,99276.27
2022-11-06T13:34:37.481Z,99272.88
2022-11-06T13:35:41.243Z,99271.17
2022-11-06T13:36:46.500Z,99274.23
2022-11-06T13:37:48.715Z,99274.64
2022-11-06T13:38:51.131Z,99275.95
2022-11-06T13:39:55.161Z,99276.49
2022-11-06T13:41:02.270Z,99270.38
2022-11-06T13:41:59.962Z,99259.92
2022-11-06T13:43:02.360Z,99255.69
2022-11-06T13:44:04.895Z,99253.39
2022-11-06T13:45:07.304Z,99246.22
2022-11-06T13:46:09.831Z,99242.16
2022-11-06T13:55:43.984Z,99219.46
2022-11-06T13:56:46.208Z,99222.05
2022-11-06T13:57:48.648Z,99210.65
2022-11-06T13:58:51.134Z,99208.02
2022-11-06T13:59:53.548Z,99202.67
2022-11-06T14:00:56.125Z,99204.27
2022-11-06T14:02:00.226Z,99208.94
2022-11-06T14:03:02.437Z,99218.98
2022-11-06T14:04:04.834Z,99216.10
2022-11-06T14:05:07.270Z,99222.60
2022-11-06T14:06:09.679Z,99220.70
2022-11-06T14:07:12.185Z,99221.25
2022-11-06T14:08:15.030Z,99230.27
2022-11-06T14:09:17.008Z,99237.32
2022-11-06T14:10:21.045Z,99247.08
2022-11-06T14:11:23.396Z,99244.00
2022-11-06T14:12:27.412Z,99246.57
2022-11-06T14:13:29.768Z,99241.55
2022-11-06T14:14:32.195Z,99236.86
2022-11-06T14:15:34.577Z,99233.28
2022-11-06T14:16:37.013Z,99233.45
2022-11-06T14:17:39.398Z,99235.09
2022-11-06T14:18:43.464Z,99239.23
2022-11-06T14:19:50.424Z,99240.62
2022-11-06T14:20:49.733Z,99240.52
2022-11-06T14:21:52.259Z,99238.47
2022-11-06T14:22:56.306Z,99238.88
2022-11-06T14:23:58.591Z,99244.16
2022-11-06T14:25:02.175Z,99241.16
2022-11-06T14:26:03.440Z,99241.92
2022-11-06T14:27:07.500Z,99242.16
2022-11-06T14:28:09.803Z,99236.39
2022-11-06T14:29:12.309Z,99231.56
2022-11-06T14:30:14.702Z,99231.25
2022-11-06T14:31:23.881Z,99220.98
2022-11-06T14:32:22.086Z,99220.65
2022-11-06T14:33:24.434Z,99224.34
2022-11-06T14:34:28.502Z,99224.64
2022-11-06T14:35:30.827Z,99225.75
2022-11-06T14:36:33.286Z,99228.48
2022-11-06T14:37:37.354Z,99221.11
2022-11-06T14:38:39.695Z,99230.20
2022-11-06T14:39:43.751Z,99229.13
2022-11-06T14:40:46.028Z,99228.93
2022-11-06T14:41:51.104Z,99221.81
2022-11-06T14:42:53.377Z,99218.23
2022-11-06T14:43:55.782Z,99219.23
2022-11-06T14:44:58.270Z,99218.72
2022-11-06T14:46:00.714Z,99220.84
2022-11-06T14:47:03.246Z,99225.50
2022-11-06T14:48:07.231Z,99228.69
2022-11-06T14:49:11.105Z,99226.70
2022-11-06T14:58:41.633Z,99198.06
2022-11-06T14:59:45.666Z,99200.74
2022-11-06T15:00:48.119Z,99196.62
2022-11-06T15:01:50.622Z,99205.02
2022-11-06T15:02:52.864Z,99205.05
2022-11-06T15:03:55.316Z,99203.09
2022-11-06T15:04:59.374Z,99194.36
2022-11-06T15:06:03.347Z,99184.67
2022-11-06T15:07:05.653Z,99179.23
2022-11-06T15:08:08.115Z,99181.98
2022-11-06T15:09:10.557Z,99184.84
2022-11-06T15:10:14.627Z,99187.21
2022-11-06T15:11:16.909Z,99188.52
2022-11-06T15:12:19.387Z,99187.45
2022-11-06T15:13:22.782Z,99192.52
2022-11-06T15:14:26.690Z,99192.25
2022-11-06T15:15:29.057Z,99193.48
2022-11-06T15:16:31.553Z,99188.59
2022-11-06T15:17:35.522Z,99186.48
2022-11-06T15:18:39.464Z,99192.09
2022-11-06T15:19:41.844Z,99193.27
2022-11-06T15:20:46.965Z,99194.40
2022-11-06T15:21:46.729Z,99191.92
2022-11-06T15:22:49.163Z,99197.02
2022-11-06T15:23:51.611Z,99195.95
2022-11-06T15:24:54.036Z,99196.53
2022-11-06T15:25:56.494Z,99193.59
2022-11-06T15:26:59.835Z,99192.98
2022-11-06T15:28:02.220Z,99189.80
2022-11-06T15:29:06.274Z,99192.31
2022-11-06T15:30:08.556Z,99187.61
2022-11-06T15:31:11.005Z,99187.61
2022-11-06T15:32:15.032Z,99183.89
2022-11-06T15:33:17.308Z,99181.88
2022-11-06T15:34:21.392Z,99177.44
2022-11-06T15:35:23.703Z,99175.09
2022-11-06T15:44:57.142Z,99196.13
2022-11-06T15:54:30.038Z,99189.25
2022-11-06T15:55:33.158Z,99184.60
2022-11-06T16:05:06.121Z,99176.14
2022-11-06T16:14:40.045Z,99154.65
2022-11-06T16:24:13.859Z,99184.27
2022-11-06T16:33:46.969Z,99173.94
2022-11-06T16:43:19.953Z,99175.91
2022-11-06T16:52:54.150Z,99184.58
2022-11-06T17:02:30.105Z,99171.03
2022-11-06T17:12:02.328Z,99155.19
2022-11-06T17:21:37.853Z,99148.86
2022-11-06T17:31:16.005Z,99145.14
2022-11-06T17:40:45.424Z,99129.39
2022-11-06T17:50:19.413Z,99128.77
2022-11-06T17:59:54.590Z,99119.83
2022-11-06T18:09:27.337Z,99135.80
2022-11-06T18:19:01.842Z,99148.61
2022-11-06T18:28:36.251Z,99158.73
2022-11-06T18:38:11.335Z,99165.77
2022-11-06T18:47:43.403Z,99156.84
2022-11-06T18:57:19.072Z,99170.34
2022-11-06T19:06:53.971Z,99177.73
2022-11-06T19:16:28.552Z,99182.83
2022-11-06T19:26:25.396Z,99205.77
2022-11-06T19:35:35.389Z,99192.97
2022-11-06T19:45:09.479Z,99187.22
2022-11-06T19:54:41.796Z,99202.13
2022-11-06T20:04:15.866Z,99175.74
2022-11-06T20:13:51.547Z,99190.92
2022-11-06T20:23:23.612Z,99215.93
2022-11-06T20:32:59.156Z,99205.73
2022-11-06T20:42:31.668Z,99221.26
2022-11-06T20:52:15.229Z,99224.27
2022-11-06T21:01:39.763Z,99239.63
2022-11-06T21:11:15.221Z,99253.34
2022-11-06T21:20:47.475Z,99268.03
2022-11-06T21:30:21.506Z,99282.72
2022-11-06T21:39:56.025Z,99276.06
2022-11-06T21:49:29.904Z,99283.25
2022-11-06T21:59:05.024Z,99279.84
2022-11-06T22:08:37.765Z,99273.55
2022-11-06T22:18:13.285Z,99287.50
2022-11-06T22:27:46.166Z,99287.59
2022-11-06T22:37:20.116Z,99302.69
2022-11-06T22:46:54.667Z,99312.23
2022-11-06T22:56:30.526Z,99308.75
2022-11-06T23:06:03.090Z,99323.31
2022-11-06T23:15:37.115Z,99327.83
2022-11-06T23:25:12.937Z,99337.30
2022-11-06T23:34:46.570Z,99342.93
2022-11-06T23:44:19.580Z,99354.92
2022-11-06T23:53:54.505Z,99352.70
